createdAt,value
2022-08-05T00:00:53.518Z,88.42
2022-08-05T00:02:53.650Z,89.82
2022-08-05T00:04:55.786Z,89.02
2022-08-05T00:08:34.157Z,89.42
2022-08-05T00:10:11.334Z,89.32
2022-08-05T00:12:13.208Z,89.26
2022-08-05T00:14:12.082Z,89.16
2022-08-05T00:16:12.561Z,88.17
2022-08-05T00:18:21.849Z,87.46
2022-08-05T00:20:11.916Z,89.32
2022-08-05T00:22:12.140Z,89.47
2022-08-05T00:24:15.981Z,90.86
2022-08-05T00:26:12.287Z,90.56
2022-08-05T00:28:12.749Z,90.92
2022-08-05T00:30:11.721Z,90.32
2022-08-05T00:32:14.757Z,91.22
2022-08-05T00:34:53.413Z,91.76
2022-08-05T00:36:16.487Z,92.26
2022-08-05T00:38:13.095Z,91.46
2022-08-05T00:40:12.175Z,91.46
2022-08-05T00:42:12.412Z,92.36
2022-08-05T00:44:13.426Z,91.46
2022-08-05T00:46:12.653Z,91.66
2022-08-05T00:48:12.722Z,91.96
2022-08-05T00:50:12.898Z,92.86
2022-08-05T00:52:12.971Z,92.36
2022-08-05T00:54:13.105Z,92.90
2022-08-05T00:56:13.251Z,93.10
2022-08-05T00:58:13.491Z,92.90
2022-08-05T01:00:13.490Z,93.00
2022-08-05T01:02:13.858Z,92.75
2022-08-05T01:04:15.700Z,93.24
2022-08-05T01:06:15.477Z,93.74
2022-08-05T01:08:40.890Z,94.74
2022-08-05T01:10:15.131Z,94.54
2022-08-05T01:12:18.628Z,94.54
2022-08-05T01:14:15.624Z,94.04
2022-08-05T01:16:14.528Z,93.85
2022-08-05T01:18:15.713Z,94.04
2022-08-05T01:20:14.951Z,93.90
2022-08-05T01:22:15.613Z,94.10
2022-08-05T01:24:15.168Z,93.50
2022-08-05T01:26:15.405Z,93.55
2022-08-05T01:28:15.344Z,94.24
2022-08-05T01:30:19.072Z,93.24
2022-08-05T01:32:18.534Z,93.05
2022-08-05T01:34:15.819Z,93.40
2022-08-05T01:36:16.198Z,93.60
2022-08-05T01:38:27.266Z,93.50
2022-08-05T01:40:17.949Z,93.40
2022-08-05T01:42:16.256Z,94.10
2022-08-05T01:44:16.288Z,94.20
2022-08-05T01:46:42.019Z,93.90
2022-08-05T01:48:17.543Z,94.00
2022-08-05T01:50:17.327Z,93.70
2022-08-05T01:52:17.558Z,93.70
2022-08-05T01:54:18.010Z,93.24
2022-08-05T01:58:12.975Z,93.85
2022-08-05T01:58:18.279Z,94.15
2022-08-05T02:00:18.412Z,94.24
2022-08-05T02:02:17.517Z,94.54
2022-08-05T02:04:17.759Z,94.04
2022-08-05T02:06:37.409Z,93.39
2022-08-05T02:08:30.664Z,94.24
2022-08-05T02:10:19.066Z,94.24
2022-08-05T02:12:19.174Z,94.65
2022-08-05T02:14:18.279Z,93.85
2022-08-05T02:16:18.442Z,93.85
2022-08-05T02:18:31.727Z,94.24
2022-08-05T02:20:20.808Z,94.19
2022-08-05T02:22:25.929Z,94.69
2022-08-05T02:24:22.140Z,93.99
2022-08-05T02:26:19.195Z,94.39
2022-08-05T02:28:28.912Z,94.69
2022-08-05T02:30:20.254Z,94.54
2022-08-05T02:32:23.991Z,93.65
2022-08-05T02:34:20.555Z,93.95
2022-08-05T02:36:19.658Z,93.49
2022-08-05T02:38:19.915Z,93.59
2022-08-05T02:40:20.935Z,94.73
2022-08-05T02:42:25.646Z,94.73
2022-08-05T02:44:21.186Z,94.93
2022-08-05T02:46:20.318Z,95.43
2022-08-05T02:48:21.515Z,94.93
2022-08-05T02:50:21.619Z,95.43
2022-08-05T02:52:30.036Z,95.88
2022-08-05T02:54:35.668Z,96.58
2022-08-05T02:56:22.077Z,96.68
2022-08-05T02:58:21.668Z,97.38
2022-08-05T03:00:21.305Z,97.88
2022-08-05T03:02:21.426Z,97.38
2022-08-05T03:04:23.090Z,98.58
2022-08-05T03:06:56.161Z,97.88
2022-08-05T03:08:29.733Z,97.64
2022-08-05T03:10:25.068Z,97.24
2022-08-05T03:12:22.031Z,97.08
2022-08-05T03:14:22.229Z,96.78
2022-08-05T03:16:22.307Z,96.88
2022-08-05T03:18:24.692Z,96.48
2022-08-05T03:20:24.567Z,96.18
2022-08-05T03:22:32.006Z,96.63
2022-08-05T03:24:30.289Z,97.33
2022-08-05T03:26:32.113Z,96.43
2022-08-05T03:28:24.180Z,96.03
2022-08-05T03:30:23.339Z,96.67
2022-08-05T03:32:31.090Z,97.23
2022-08-05T03:34:24.630Z,97.33
2022-08-05T03:36:30.283Z,96.63
2022-08-05T03:38:33.323Z,96.93
2022-08-05T03:40:32.059Z,96.43
2022-08-05T03:42:27.149Z,96.23
2022-08-05T03:44:24.292Z,96.63
2022-08-05T03:46:29.538Z,96.73
2022-08-05T03:48:27.454Z,95.87
2022-08-05T03:50:25.811Z,95.87
2022-08-05T03:52:36.872Z,96.47
2022-08-05T03:55:51.764Z,96.08
2022-08-05T03:56:30.686Z,96.27
2022-08-05T03:58:28.965Z,96.67
2022-08-05T04:00:25.291Z,97.97
2022-08-05T04:02:37.716Z,96.58
2022-08-05T04:04:26.637Z,96.37
2022-08-05T04:06:25.615Z,96.58
2022-08-05T04:08:36.584Z,96.88
2022-08-05T04:10:27.748Z,97.08
2022-08-05T04:12:25.985Z,96.17
2022-08-05T04:14:29.771Z,96.88
2022-08-05T04:17:55.910Z,97.17
2022-08-05T04:19:43.231Z,97.28
2022-08-05T04:22:09.703Z,97.17
2022-08-05T04:24:05.642Z,96.47
2022-08-05T04:26:00.406Z,96.58
2022-08-05T04:27:58.078Z,97.28
2022-08-05T04:29:43.933Z,96.88
2022-08-05T04:31:43.125Z,96.47
2022-08-05T04:33:54.796Z,96.58
2022-08-05T04:36:16.661Z,95.57
2022-08-05T04:38:00.957Z,94.77
2022-08-05T04:39:44.729Z,94.93
2022-08-05T04:41:44.742Z,93.57
2022-08-05T04:43:48.105Z,94.23
2022-08-05T04:45:49.041Z,94.02
2022-08-05T04:47:45.106Z,93.43
2022-08-05T04:50:01.689Z,93.52
2022-08-05T04:51:45.302Z,94.53
2022-08-05T04:53:44.462Z,94.37
2022-08-05T04:56:15.147Z,94.07
2022-08-05T04:57:47.469Z,93.37
2022-08-05T04:59:44.842Z,93.97
2022-08-05T05:02:06.953Z,94.57
2022-08-05T05:03:46.057Z,94.97
2022-08-05T05:06:39.617Z,95.37
2022-08-05T05:07:55.230Z,96.72
2022-08-05T05:09:46.535Z,96.77
2022-08-05T05:11:54.602Z,96.88
2022-08-05T05:13:46.667Z,96.77
2022-08-05T05:15:57.512Z,96.77
2022-08-05T05:17:56.911Z,97.17
2022-08-05T05:19:47.592Z,95.87
2022-08-05T05:21:46.443Z,95.37
2022-08-05T05:24:04.244Z,94.57
2022-08-05T05:25:47.771Z,95.37
2022-08-05T05:27:53.761Z,95.03
2022-08-05T05:30:04.111Z,95.32
2022-08-05T05:31:47.649Z,94.62
2022-08-05T05:33:59.733Z,93.82
2022-08-05T05:35:48.084Z,94.12
2022-08-05T05:38:01.491Z,92.82
2022-08-05T05:39:48.105Z,93.57
2022-08-05T05:41:54.430Z,95.07
2022-08-05T05:43:57.268Z,95.93
2022-08-05T05:45:48.622Z,95.73
2022-08-05T05:48:06.906Z,94.62
2022-08-05T05:49:56.561Z,95.32
2022-08-05T05:51:50.006Z,96.33
2022-08-05T05:53:58.167Z,95.73
2022-08-05T05:55:51.425Z,95.83
2022-08-05T05:57:52.613Z,95.68
2022-08-05T05:59:48.769Z,95.08
2022-08-05T06:01:57.563Z,96.28
2022-08-05T06:04:00.833Z,96.28
2022-08-05T06:05:54.096Z,95.78
2022-08-05T06:08:01.121Z,94.73
2022-08-05T06:10:04.401Z,94.23
2022-08-05T06:12:01.160Z,94.54
2022-08-05T06:13:55.278Z,95.29
2022-08-05T06:16:31.570Z,94.09
2022-08-05T06:17:53.558Z,95.09
2022-08-05T06:19:56.861Z,94.59
2022-08-05T06:21:50.638Z,94.64
2022-08-05T06:23:49.955Z,95.04
2022-08-05T06:26:12.620Z,94.23
2022-08-05T06:28:11.032Z,94.68
2022-08-05T06:30:04.548Z,95.48
2022-08-05T06:31:51.178Z,95.58
2022-08-05T06:34:07.117Z,94.73
2022-08-05T06:36:07.270Z,94.62
2022-08-05T06:37:58.127Z,95.78
2022-08-05T06:39:51.623Z,95.58
2022-08-05T06:41:50.690Z,95.28
2022-08-05T06:43:57.660Z,95.68
2022-08-05T06:46:07.310Z,97.08
2022-08-05T06:48:37.016Z,96.94
2022-08-05T06:50:01.932Z,96.53
2022-08-05T06:51:52.340Z,96.39
2022-08-05T06:53:53.594Z,95.39
2022-08-05T06:55:51.504Z,95.95
2022-08-05T06:58:02.922Z,95.84
2022-08-05T06:59:56.520Z,95.45
2022-08-05T07:01:53.192Z,94.45
2022-08-05T07:03:51.895Z,94.04
2022-08-05T07:05:52.079Z,94.84
2022-08-05T07:07:53.178Z,95.04
2022-08-05T07:09:55.397Z,96.25
2022-08-05T07:11:53.395Z,95.84
2022-08-05T07:13:57.596Z,95.10
2022-08-05T07:16:01.651Z,93.00
2022-08-05T07:18:02.277Z,94.30
2022-08-05T07:22:00.106Z,93.01
2022-08-05T07:23:54.140Z,92.41
2022-08-05T07:25:56.508Z,92.61
2022-08-05T07:27:57.993Z,91.22
2022-08-05T07:30:24.749Z,89.02
2022-08-05T07:31:55.336Z,89.92
2022-08-05T07:33:53.760Z,90.72
2022-08-05T07:36:04.333Z,91.02
2022-08-05T07:37:55.036Z,91.26
2022-08-05T07:40:26.950Z,89.56
2022-08-05T07:42:14.783Z,91.36
2022-08-05T07:43:56.472Z,91.16
2022-08-05T07:45:56.993Z,90.76
2022-08-05T07:47:55.698Z,91.61
2022-08-05T07:49:54.832Z,90.92
2022-08-05T07:51:55.275Z,91.52
2022-08-05T07:53:55.032Z,89.12
2022-08-05T07:56:05.627Z,90.42
2022-08-05T07:58:02.733Z,90.16
2022-08-05T07:59:56.328Z,90.86
2022-08-05T08:01:57.526Z,91.25
2022-08-05T08:03:55.570Z,92.35
2022-08-05T08:05:55.624Z,92.65
2022-08-05T08:07:59.761Z,93.24
2022-08-05T08:09:55.840Z,92.59
2022-08-05T08:12:00.224Z,93.59
2022-08-05T08:14:00.817Z,94.59
2022-08-05T08:16:35.017Z,94.04
2022-08-05T08:17:57.250Z,94.15
2022-08-05T08:20:23.478Z,94.04
2022-08-05T08:21:57.483Z,94.74
2022-08-05T08:24:01.044Z,94.04
2022-08-05T08:25:59.810Z,94.10
2022-08-05T08:27:56.806Z,94.10
2022-08-05T08:30:05.481Z,93.55
2022-08-05T08:31:58.071Z,93.30
2022-08-05T08:33:57.206Z,92.40
2022-08-05T08:36:12.961Z,91.75
2022-08-05T08:37:58.492Z,92.70
2022-08-05T08:39:57.716Z,92.32
2022-08-05T08:42:00.201Z,86.16
2022-08-05T08:45:18.683Z,83.91
2022-08-05T08:45:59.099Z,81.98
2022-08-05T08:48:07.686Z,83.23
2022-08-05T08:50:23.110Z,81.51
2022-08-05T08:52:03.487Z,79.32
2022-08-05T08:53:59.490Z,79.16
2022-08-05T08:56:03.948Z,80.31
2022-08-05T08:57:59.752Z,81.21
2022-08-05T08:59:58.910Z,79.72
2022-08-05T09:02:01.146Z,79.32
2022-08-05T09:03:59.194Z,80.55
2022-08-05T09:06:09.447Z,78.94
2022-08-05T09:08:00.440Z,82.12
2022-08-05T09:09:59.570Z,81.36
2022-08-05T09:12:12.245Z,81.92
2022-08-05T09:14:54.334Z,80.63
2022-08-05T09:16:00.948Z,81.02
2022-08-05T09:18:00.130Z,80.87
2022-08-05T09:20:02.630Z,83.43
2022-08-05T09:22:17.543Z,83.07
2022-08-05T09:24:02.530Z,83.27
2022-08-05T09:26:06.193Z,84.37
2022-08-05T09:28:04.192Z,84.67
2022-08-05T09:30:06.477Z,84.48
2022-08-05T09:32:51.103Z,79.33
2022-08-05T09:34:02.229Z,79.24
2022-08-05T09:36:06.086Z,73.01
2022-08-05T09:38:16.199Z,68.17
2022-08-05T09:40:02.622Z,67.94
2022-08-05T09:42:01.707Z,66.43
2022-08-05T09:44:01.944Z,63.09
2022-08-05T09:46:07.887Z,61.05
2022-08-05T09:48:03.093Z,63.15
2022-08-05T09:50:03.572Z,63.53
2022-08-05T09:52:02.348Z,65.57
2022-08-05T09:54:02.491Z,69.16
2022-08-05T09:56:05.025Z,70.41
2022-08-05T09:58:03.788Z,71.47
2022-08-05T10:00:07.577Z,71.61
2022-08-05T10:02:04.086Z,74.46
2022-08-05T10:04:03.189Z,75.92
2022-08-05T10:06:07.540Z,73.80
2022-08-05T10:08:35.913Z,76.75
2022-08-05T10:10:15.155Z,75.12
2022-08-05T10:12:18.710Z,74.76
2022-08-05T10:14:04.918Z,72.83
2022-08-05T10:16:04.012Z,73.19
2022-08-05T10:18:04.151Z,71.61
2022-08-05T10:20:10.919Z,74.02
2022-08-05T10:22:05.389Z,74.16
2022-08-05T10:24:10.606Z,74.89
2022-08-05T10:26:05.603Z,73.76
2022-08-05T10:28:13.458Z,72.83
2022-08-05T10:30:41.212Z,72.80
2022-08-05T10:32:52.798Z,71.21
2022-08-05T10:34:06.978Z,72.27
2022-08-05T10:36:05.318Z,71.91
2022-08-05T10:38:05.589Z,72.64
2022-08-05T10:40:17.909Z,73.90
2022-08-05T10:42:06.732Z,76.89
2022-08-05T10:44:06.529Z,75.16
2022-08-05T10:46:06.353Z,75.52
2022-08-05T10:48:29.212Z,69.65
2022-08-05T10:50:32.040Z,63.50
2022-08-05T10:52:10.324Z,60.79
2022-08-05T10:54:28.186Z,59.06
2022-08-05T10:56:21.521Z,58.37
2022-08-05T10:58:08.015Z,59.30
2022-08-05T11:00:09.929Z,56.63
2022-08-05T11:02:14.134Z,60.22
2022-08-05T11:04:08.357Z,62.77
2022-08-05T11:06:08.577Z,64.05
2022-08-05T11:08:27.653Z,67.84
2022-08-05T11:10:10.083Z,71.47
2022-08-05T11:12:07.762Z,69.82
2022-08-05T11:14:07.894Z,68.57
2022-08-05T11:16:07.994Z,68.90
2022-08-05T11:18:11.596Z,71.84
2022-08-05T11:20:11.288Z,69.59
2022-08-05T11:22:09.404Z,71.14
2022-08-05T11:24:30.337Z,71.67
2022-08-05T11:26:09.951Z,71.81
2022-08-05T11:28:08.735Z,73.30
2022-08-05T11:30:08.897Z,74.57
2022-08-05T11:32:09.111Z,75.70
2022-08-05T11:35:25.007Z,75.20
2022-08-05T11:38:45.391Z,75.60
2022-08-05T11:40:42.092Z,76.20
2022-08-05T11:42:41.228Z,76.14
2022-08-05T11:44:53.288Z,76.07
2022-08-05T11:47:09.154Z,77.67
2022-08-05T11:48:42.635Z,75.87
2022-08-05T11:50:41.702Z,76.57
2022-08-05T11:52:41.838Z,77.87
2022-08-05T11:54:43.553Z,77.31
2022-08-05T11:56:43.134Z,75.11
2022-08-05T11:58:43.337Z,77.11
2022-08-05T12:00:44.150Z,77.40
2022-08-05T12:02:42.644Z,76.75
2022-08-05T12:04:43.058Z,77.78
2022-08-05T12:06:48.993Z,77.72
2022-08-05T12:08:49.851Z,77.92
2022-08-05T12:10:46.074Z,76.78
2022-08-05T12:12:58.236Z,77.25
2022-08-05T12:14:47.368Z,76.21
2022-08-05T12:16:45.503Z,75.71
2022-08-05T12:18:52.466Z,74.98
2022-08-05T12:20:44.688Z,76.11
2022-08-05T12:22:46.257Z,76.41
2022-08-05T12:24:49.765Z,76.68
2022-08-05T12:26:45.130Z,78.36
2022-08-05T12:28:44.320Z,79.29
2022-08-05T12:30:45.804Z,80.53
2022-08-05T12:32:44.468Z,80.33
2022-08-05T12:34:45.802Z,79.93
2022-08-05T12:36:44.819Z,79.29
2022-08-05T12:38:44.982Z,79.93
2022-08-05T12:40:45.020Z,80.13
2022-08-05T12:42:45.239Z,80.79
2022-08-05T12:44:45.325Z,77.88
2022-08-05T12:46:45.629Z,76.38
2022-08-05T12:48:45.555Z,75.15
2022-08-05T12:50:45.704Z,76.25
2022-08-05T12:52:45.813Z,76.62
2022-08-05T12:54:45.902Z,78.19
2022-08-05T12:56:46.196Z,78.89
2022-08-05T12:58:53.095Z,79.73
2022-08-05T13:02:01.885Z,79.29
2022-08-05T13:02:47.479Z,78.29
2022-08-05T13:04:52.459Z,76.49
2022-08-05T13:06:51.659Z,76.56
2022-08-05T13:08:52.482Z,76.88
2022-08-05T13:10:50.292Z,75.65
2022-08-05T13:12:51.163Z,72.35
2022-08-05T13:14:48.249Z,72.62
2022-08-05T13:16:48.317Z,71.22
2022-08-05T13:18:47.481Z,72.55
2022-08-05T13:20:47.570Z,71.09
2022-08-05T13:22:47.712Z,71.29
2022-08-05T13:24:58.063Z,70.45
2022-08-05T13:26:50.740Z,70.59
2022-08-05T13:28:47.990Z,68.53
2022-08-05T13:30:53.163Z,68.57
2022-08-05T13:32:50.603Z,66.35
2022-08-05T13:34:48.362Z,65.31
2022-08-05T13:36:48.503Z,66.24
2022-08-05T13:38:52.081Z,66.94
2022-08-05T13:40:51.599Z,64.45
2022-08-05T13:42:48.948Z,64.72
2022-08-05T13:44:49.974Z,64.52
2022-08-05T13:47:02.483Z,63.20
2022-08-05T13:48:57.874Z,61.71
2022-08-05T13:50:50.412Z,62.57
2022-08-05T13:52:50.047Z,60.75
2022-08-05T13:54:53.281Z,60.80
2022-08-05T13:56:50.671Z,58.88
2022-08-05T13:58:52.743Z,60.27
2022-08-05T14:00:49.931Z,60.40
2022-08-05T14:02:50.199Z,60.60
2022-08-05T14:04:51.404Z,60.60
2022-08-05T14:06:58.892Z,58.42
2022-08-05T14:08:51.487Z,60.93
2022-08-05T14:10:50.738Z,61.29
2022-08-05T14:12:50.897Z,57.72
2022-08-05T14:14:51.404Z,58.02
2022-08-05T14:16:50.970Z,59.70
2022-08-05T14:18:51.134Z,57.55
2022-08-05T14:20:54.600Z,59.31
2022-08-05T14:22:51.288Z,58.34
2022-08-05T14:24:51.459Z,56.29
2022-08-05T14:27:15.758Z,58.00
2022-08-05T14:28:52.693Z,58.50
2022-08-05T14:30:52.236Z,57.21
2022-08-05T14:32:52.051Z,56.41
2022-08-05T14:34:52.137Z,56.68
2022-08-05T14:36:52.119Z,54.72
2022-08-05T14:38:52.317Z,55.62
2022-08-05T14:40:52.446Z,55.82
2022-08-05T14:42:54.934Z,57.11
2022-08-05T14:44:52.681Z,57.08
2022-08-05T14:46:52.792Z,56.59
2022-08-05T14:48:52.920Z,56.09
2022-08-05T14:50:53.061Z,57.11
2022-08-05T14:52:58.693Z,54.80
2022-08-05T14:54:54.589Z,54.00
2022-08-05T14:56:54.707Z,55.59
2022-08-05T14:58:53.590Z,53.88
2022-08-05T15:00:58.267Z,54.38
2022-08-05T15:02:54.981Z,54.47
2022-08-05T15:04:54.046Z,54.08
2022-08-05T15:06:54.190Z,53.91
2022-08-05T15:08:59.673Z,54.00
2022-08-05T15:10:55.463Z,54.90
2022-08-05T15:13:01.204Z,54.40
2022-08-05T15:14:56.082Z,55.19
2022-08-05T15:16:55.691Z,53.88
2022-08-05T15:18:54.975Z,54.00
2022-08-05T15:20:55.133Z,55.10
2022-08-05T15:22:55.263Z,55.29
2022-08-05T15:24:55.711Z,53.01
2022-08-05T15:26:55.853Z,53.91
2022-08-05T15:28:55.621Z,53.80
2022-08-05T15:30:55.806Z,54.80
2022-08-05T15:32:55.918Z,53.70
2022-08-05T15:34:56.215Z,54.80
2022-08-05T15:36:56.195Z,52.24
2022-08-05T15:40:41.534Z,54.06
2022-08-05T15:41:20.324Z,55.82
2022-08-05T15:43:07.922Z,53.04
2022-08-05T15:44:57.747Z,53.73
2022-08-05T15:46:57.027Z,54.33
2022-08-05T15:49:01.476Z,53.31
2022-08-05T15:50:58.152Z,54.23
2022-08-05T15:53:03.536Z,54.85
2022-08-05T15:54:58.403Z,56.02
2022-08-05T15:56:57.616Z,54.33
2022-08-05T15:58:57.685Z,53.04
2022-08-05T16:01:12.040Z,53.44
2022-08-05T16:02:59.132Z,56.21
2022-08-05T16:04:58.083Z,53.41
2022-08-05T16:06:58.268Z,52.69
2022-08-05T16:08:58.346Z,52.49
2022-08-05T16:10:58.700Z,52.98
2022-08-05T16:12:58.679Z,53.16
2022-08-05T16:14:58.945Z,52.86
2022-08-05T16:16:58.937Z,52.98
2022-08-05T16:18:59.141Z,53.98
2022-08-05T16:20:59.241Z,54.17
2022-08-05T16:22:59.392Z,53.08
2022-08-05T16:24:59.496Z,53.53
2022-08-05T16:26:59.604Z,54.46
2022-08-05T16:28:59.759Z,55.27
2022-08-05T16:30:59.923Z,56.52
2022-08-05T16:33:00.020Z,58.22
2022-08-05T16:35:00.136Z,58.34
2022-08-05T16:37:00.280Z,59.44
2022-08-05T16:39:00.490Z,59.41
2022-08-05T16:41:01.396Z,60.21
2022-08-05T16:43:00.729Z,58.61
2022-08-05T16:45:00.838Z,58.24
2022-08-05T16:47:01.041Z,58.47
2022-08-05T16:49:01.098Z,60.26
2022-08-05T16:51:01.317Z,59.69
2022-08-05T16:53:09.181Z,60.29
2022-08-05T16:55:02.621Z,59.82
2022-08-05T16:57:01.640Z,60.12
2022-08-05T16:59:01.885Z,61.61
2022-08-05T17:01:02.925Z,59.62
2022-08-05T17:03:02.010Z,58.92
2022-08-05T17:05:02.179Z,58.23
2022-08-05T17:07:03.437Z,57.82
2022-08-05T17:09:03.430Z,59.22
2022-08-05T17:11:02.591Z,59.95
2022-08-05T17:13:02.687Z,59.35
2022-08-05T17:15:02.873Z,59.55
2022-08-05T17:17:02.991Z,60.65
2022-08-05T17:19:07.750Z,59.65
2022-08-05T17:21:04.589Z,58.98
2022-08-05T17:23:03.376Z,60.88
2022-08-05T17:25:03.467Z,61.08
2022-08-05T17:27:04.618Z,61.47
2022-08-05T17:29:07.365Z,60.97
2022-08-05T17:31:08.403Z,61.68
2022-08-05T17:33:04.993Z,60.68
2022-08-05T17:35:04.116Z,62.87
2022-08-05T17:37:04.671Z,62.07
2022-08-05T17:39:05.422Z,61.47
2022-08-05T17:41:05.497Z,61.38
2022-08-05T17:43:07.764Z,61.41
2022-08-05T17:45:09.743Z,61.51
2022-08-05T17:47:05.939Z,64.27
2022-08-05T17:49:05.047Z,63.30
2022-08-05T17:51:09.035Z,62.48
2022-08-05T17:53:05.347Z,61.98
2022-08-05T17:55:08.002Z,63.80
2022-08-05T17:57:05.581Z,64.60
2022-08-05T17:59:06.710Z,63.90
2022-08-05T18:01:09.592Z,63.90
2022-08-05T18:03:06.070Z,64.80
2022-08-05T18:05:07.787Z,63.60
2022-08-05T18:07:06.348Z,63.30
2022-08-05T18:09:09.549Z,63.20
2022-08-05T18:11:07.528Z,62.73
2022-08-05T18:13:12.294Z,64.03
2022-08-05T18:15:08.854Z,63.66
2022-08-05T18:17:06.974Z,64.36
2022-08-05T18:19:08.150Z,64.86
2022-08-05T18:21:13.342Z,65.66
2022-08-05T18:23:11.926Z,65.46
2022-08-05T18:25:07.464Z,64.29
2022-08-05T18:27:12.932Z,62.37
2022-08-05T18:29:10.447Z,63.86
2022-08-05T18:31:07.860Z,63.76
2022-08-05T18:33:07.897Z,64.06
2022-08-05T18:35:08.093Z,62.39
2022-08-05T18:37:12.326Z,63.19
2022-08-05T18:39:09.752Z,64.29
2022-08-05T18:41:59.594Z,62.39
2022-08-05T18:43:16.120Z,62.49
2022-08-05T18:45:09.773Z,63.39
2022-08-05T18:47:08.845Z,64.39
2022-08-05T18:49:08.919Z,62.92
2022-08-05T18:52:04.149Z,63.92
2022-08-05T18:53:17.567Z,64.12
2022-08-05T18:55:10.873Z,63.45
2022-08-05T18:57:09.424Z,64.25
2022-08-05T18:59:43.351Z,63.25
2022-08-05T19:01:18.287Z,63.48
2022-08-05T19:03:10.774Z,64.18
2022-08-05T19:06:11.670Z,66.28
2022-08-05T19:07:11.002Z,64.48
2022-08-05T19:09:10.129Z,64.98
2022-08-05T19:11:10.294Z,63.81
2022-08-05T19:13:12.327Z,65.92
2022-08-05T19:15:58.108Z,65.22
2022-08-05T19:17:11.660Z,66.82
2022-08-05T19:19:10.886Z,67.12
2022-08-05T19:21:10.875Z,68.26
2022-08-05T19:24:03.795Z,69.16
2022-08-05T19:25:21.594Z,69.49
2022-08-05T19:27:12.307Z,69.29
2022-08-05T19:29:11.442Z,70.12
2022-08-05T19:31:12.965Z,69.62
2022-08-05T19:33:12.944Z,69.92
2022-08-05T19:35:12.830Z,69.42
2022-08-05T19:37:11.944Z,70.06
2022-08-05T19:39:12.136Z,70.66
2022-08-05T19:41:13.206Z,70.46
2022-08-05T19:44:03.906Z,71.06
2022-08-05T19:45:14.418Z,70.70
2022-08-05T19:47:12.524Z,71.60
2022-08-05T19:49:16.858Z,73.54
2022-08-05T19:51:12.801Z,73.84
2022-08-05T19:53:13.908Z,73.74
2022-08-05T19:56:14.733Z,73.68
2022-08-05T19:57:14.156Z,73.58
2022-08-05T19:59:21.656Z,73.27
2022-08-05T20:01:14.633Z,73.71
2022-08-05T20:03:13.497Z,73.11
2022-08-05T20:05:16.641Z,74.01
2022-08-05T20:07:14.737Z,74.15
2022-08-05T20:09:14.452Z,74.25
2022-08-05T20:11:13.980Z,76.16
2022-08-05T20:13:15.458Z,75.99
2022-08-05T20:15:14.224Z,75.49
2022-08-05T20:17:14.382Z,75.99
2022-08-05T20:19:14.464Z,75.79
2022-08-05T20:21:14.626Z,74.99
2022-08-05T20:23:14.749Z,75.79
2022-08-05T20:25:14.867Z,76.03
2022-08-05T20:27:14.990Z,74.82
2022-08-05T20:29:26.540Z,75.53
2022-08-05T20:31:16.677Z,75.23
2022-08-05T20:33:15.469Z,75.02
2022-08-05T20:35:15.498Z,74.42
2022-08-05T20:37:18.129Z,74.32
2022-08-05T20:39:17.124Z,72.91
2022-08-05T20:41:17.653Z,72.61
2022-08-05T20:43:16.975Z,70.19
2022-08-05T20:45:17.112Z,70.29
2022-08-05T20:47:16.249Z,71.91
2022-08-05T20:49:24.187Z,72.31
2022-08-05T20:51:17.723Z,71.23
2022-08-05T20:53:36.854Z,72.04
2022-08-05T20:56:07.230Z,72.24
2022-08-05T20:57:24.632Z,72.85
2022-08-05T20:59:26.654Z,71.33
2022-08-05T21:01:18.225Z,71.94
2022-08-05T21:03:20.609Z,71.13
2022-08-05T21:05:17.300Z,71.84
2022-08-05T21:07:17.357Z,72.47
2022-08-05T21:09:17.594Z,72.27
2022-08-05T21:12:07.354Z,70.06
2022-08-05T21:13:26.202Z,69.75
2022-08-05T21:15:18.894Z,71.26
2022-08-05T21:17:18.022Z,69.95
2022-08-05T21:19:18.207Z,68.74
2022-08-05T21:21:18.318Z,69.55
2022-08-05T21:23:19.419Z,68.11
2022-08-05T21:25:18.587Z,67.60
2022-08-05T21:27:18.670Z,65.99
2022-08-05T21:29:18.802Z,64.28
2022-08-05T21:31:18.933Z,64.38
2022-08-05T21:33:22.403Z,63.78
2022-08-05T21:35:29.950Z,65.69
2022-08-05T21:37:20.294Z,63.87
2022-08-05T21:39:26.997Z,63.78
2022-08-05T21:41:20.810Z,63.57
2022-08-05T21:43:24.608Z,62.66
2022-08-05T21:45:24.749Z,63.27
2022-08-05T21:47:54.798Z,62.87
2022-08-05T21:49:56.925Z,62.77
2022-08-05T21:52:16.118Z,62.57
2022-08-05T21:53:21.275Z,61.76
2022-08-05T21:55:42.891Z,61.76
2022-08-05T21:57:31.624Z,62.16
2022-08-05T21:59:23.967Z,62.57
2022-08-05T22:01:24.717Z,63.47
2022-08-05T22:03:48.230Z,63.17
2022-08-05T22:05:22.108Z,64.78
2022-08-05T22:07:23.169Z,62.49
2022-08-05T22:09:22.400Z,63.20
2022-08-05T22:11:34.734Z,64.01
2022-08-05T22:14:31.559Z,64.11
2022-08-05T22:16:00.529Z,65.01
2022-08-05T22:17:22.810Z,65.72
2022-08-05T22:20:00.502Z,64.21
2022-08-05T22:21:23.053Z,63.10
2022-08-05T22:23:22.683Z,63.60
2022-08-05T22:25:27.724Z,64.01
2022-08-05T22:27:23.401Z,64.81
2022-08-05T22:29:26.145Z,63.30
2022-08-05T22:31:22.665Z,64.31
2022-08-05T22:33:57.456Z,65.45
2022-08-05T22:35:23.909Z,64.84
2022-08-05T22:37:23.031Z,63.73
2022-08-05T22:39:24.246Z,64.84
2022-08-05T22:42:05.143Z,67.07
2022-08-05T22:43:37.311Z,65.35
2022-08-05T22:45:24.545Z,66.05
2022-08-05T22:47:30.005Z,65.38
2022-08-05T22:50:19.029Z,66.49
2022-08-05T22:52:04.521Z,67.19
2022-08-05T22:53:25.018Z,68.01
2022-08-05T22:55:26.091Z,69.55
2022-08-05T22:57:24.250Z,70.15
2022-08-05T22:59:45.331Z,70.46
2022-08-05T23:01:25.590Z,69.55
2022-08-05T23:03:57.964Z,68.67
2022-08-05T23:05:25.811Z,68.17
2022-08-05T23:07:24.931Z,71.20
2022-08-05T23:09:52.647Z,70.93
2022-08-05T23:11:26.383Z,71.33
2022-08-05T23:13:25.226Z,71.33
2022-08-05T23:15:29.610Z,70.62
2022-08-05T23:17:34.262Z,73.15
2022-08-05T23:19:26.609Z,71.77
2022-08-05T23:21:25.736Z,71.06
2022-08-05T23:23:29.904Z,71.77
2022-08-05T23:25:52.860Z,70.46
2022-08-05T23:27:31.310Z,71.17
2022-08-05T23:29:27.246Z,71.47
2022-08-05T23:31:27.426Z,72.08
2022-08-05T23:34:04.821Z,72.48
2022-08-05T23:35:28.682Z,72.58
2022-08-05T23:37:34.193Z,72.31
2022-08-05T23:39:44.425Z,73.32
2022-08-05T23:41:28.070Z,72.21
2022-08-05T23:43:37.323Z,72.92
2022-08-05T23:45:28.311Z,72.81
2022-08-05T23:47:27.443Z,71.73
2022-08-05T23:49:34.107Z,71.84
2022-08-05T23:51:28.682Z,72.34
2022-08-05T23:53:28.413Z,71.94
2022-08-05T23:55:31.044Z,72.14
2022-08-05T23:57:28.486Z,71.03
